Dundee, United Kingdom

3:22 AM BST on July 02, 2015 (GMT +0100)
West End | | Change Station
CLOSE
Current Station
Personal Weather Station
Location: Dundee,
Elevation: 187 ft
Nearby Weather Stations

Elev 187 ft 56.46 °N, 3.02 °W | Updated 60 seconds ago

Mostly Cloudy
Mostly Cloudy
58.6 °F
Feels Like 58.6 °F
N
0.0
Wind Variable Wind from West
Gusts 0.0 mph

Today
High -- | Low -- °F
--% Chance of Precip.
Yesterday
High -- | Low -- °F
Precip. -- in
4:27 AM 10:04 PM
Full, 100% visible
Pressure 29.86 in
Visibility 5.0 miles
Clouds Mostly Cloudy 8000 ft
Mostly Cloudy 17000 ft
Dew Point 59 °F
Humidity 100%
Rainfall 0.00 in
Snow Depth Not available.
UV 0.0 out of 12
Pollen Not available.
Air Quality Not available.
Flu Activity Not available.
METAR EGQL 020150Z 31002KT 8000 BR BKN080 BKN170 13/13 Q1011 BLU

More Conditions Fewer Conditions

Pressure 29.86 in
Visibility 5.0 miles
Clouds Mostly Cloudy 8000 ft
Mostly Cloudy 17000 ft
Dew Point 59 °F
Humidity 100%
Rainfall 0.00 in
Snow Depth Not available.
UV 0.0 out of 12
Pollen Not available.
Air Quality Not available.
Flu Activity Not available.
METAR EGQL 020150Z 31002KT 8000 BR BKN080 BKN170 13/13 Q1011 BLU

More Conditions Fewer Conditions

10-Day Weather Forecast

×

Almanac

Astronomy

Jul. 02, 2015 Rise Set
Actual Time
Civil Twilight
Nautical Twilight
Astronomical Twilight
Moon
Length of Visible Light
Length of Day
Tomorrow will be .
, % of the Moon is Illuminated

Today's Extremes

Country Highs Country Lows

Community

WunderPhotos

Upload Photos

1,834,376 photos uploaded!

WunderBlogs® & News

Nearby

Air Quality

  Air Quality AQ Index Pollutant
Not available.

Snow Depth

Station Depth Elevation

Earthquake Activity

City Distance Mag. Time & Date
Minimum magnitude displayed is 2.5.

Coastal Water Temperatures

Place Temperature

Stations

Nearby Weather Stations

Station Location Temp. Windchill Dew Point Humidity Wind Precip. Elev Updated Type